KSLO/SLO METAR and TAF weather

Enter ICAO airport designator
Station Type Date Time Source
KSLO METAR 2019/08/22 20:55 UTC NOAA

KSLO 222055Z AUTO 27003KT 10SM BKN016 BKN024 OVC030 25/22 A2997 RMK AO2 T02480217


Station Type Date Time Source
KSLO Decoded METAR 2019/08/22 20:55 UTC NOAA

Station name not available
Aug 22, 2019 - 04:55 PM EDT / 2019.08.22 2055 UTC
Wind: from the W (270 degrees) at 3 MPH (3 KT):0
Visibility: 10 mile(s):0
Sky conditions: overcast
Temperature: 76.6 F (24.8 C)
Dew Point: 71.1 F (21.7 C)
Relative Humidity: 82%
Pressure (altimeter): 29.97 in. Hg (1014 hPa)
ob: KSLO 222055Z AUTO 27003KT 10SM BKN016 BKN024 OVC030 25/22 A2997 RMK AO2 T02480217
cycle: 21

Station Type Date Time Source
KSLO TAF UTC NOAA

Error!

Example: see airport list